MWHGRANT COUNTY INTL
METARs for airports near MWH, sorted by distance:
N 0 nm 1188' KMWH 060552Z 23004KT 10SM CLR 02/01 A3000
NW 10 nm 1276' KEPH 060553Z 03003KT 1/4SM FG VV001 01/01 A2999
W 37 nm 1248' KEAT 060555Z 00000KT 10SM CLR 02/00 A3001
W 50 nm 1763' KELN 060553Z 31014KT 10SM CLR 06/01 A3004
S 54 nm 394' KRLD 060555Z 23008KT 10SM OVC110 07/05 A3006
S 57 nm 410' KPSC 060553Z 23008KT 10SM OVC110 08/04 A3006
SW 63 nm 1098' KYKM 060553Z 09004KT 5SM BR CLR 00/M01 A3006
E 71 nm 2462' KSKA 060555Z 00000KT 3/8SM FG VV002 01/01 A2996
N 75 nm 1304' KOMK 060553Z 00000KT 9SM BKN090 00/M01 A3000
E 76 nm 2385' KGEG 060553Z 00000KT 1/2SM FG VV002 02/01 A2997
SE 79 nm 1194' KALW 060553Z 19010KT 10SM -RA FEW022 OVC037 05/03 A3007
S 82 nm 644' KHRI 060553Z 25013G21KT 10SM OVC090 08/04 A3009
E 85 nm 1956' KSFF 060553Z 00000KT 5SM BR OVC004 03/02 A3000
NE 89 nm 2210' KDEW 060553Z 18008KT 5SM BR OVC002 01/01 A2997
S 93 nm 1494' KPDT 060553Z 26018G26KT 10SM OVC065 07/03 A3007
E 94 nm 2566' KPUW 060553Z 25012KT 10SM FEW014 FEW055 BKN080 03/01 A3000
TAFs for airports near MWH, sorted by distance:
N 0 nm 1188' KMWH TAF KMWH 060538Z 0606/0706 14004KT P6SM SKC
  FM062100 20010KT P6SM BKN120
  FM070000 21006KT P6SM BKN250
W 37 nm 1248' KEAT TAF KEAT 060538Z 0606/0706 27006KT P6SM SKC
  FM061500 31005KT P6SM OVC080
  FM062100 25015G22KT P6SM BKN120
  FM070000 33005KT P6SM OVC100
S 57 nm 410' KPSC KPSC 060521Z 0606/0706 23010KT P6SM SCT100
  FM061000 23007KT P6SM SCT100
  FM061500 23010KT P6SM BKN100
SW 63 nm 1098' KYKM KYKM 060521Z 0606/0706 VRB05KT P6SM FEW100
  FM061400 31006KT P6SM BKN100
  FM070200 27005KT P6SM BKN100
E 71 nm 2462' KSKA TAF KSKA 060300Z 0603/0709 23009KT 0800 FG OVC002 QNH2987INS
  BECMG 0620/0622 21012KT 3200 BR BKN005 QNH3024INS
  BECMG 0703/0705 20010G15KT 0800 FG VV002 QNH3017INS TX04/0622Z TNM01/0616Z
E 76 nm 2385' KGEG TAF KGEG 060538Z 0606/0706 22005KT 1/2SM FG OVC002
  FM060900 22007KT 1SM BR OVC004
  FM061900 23007KT 1SM BR OVC006
  FM062100 22010KT P6SM BKN007
  FM070200 21010KT 2SM BR OVC007
SE 79 nm 1194' KALW TAF KALW 060521Z 0606/0706 19012KT P6SM VCSH BKN040 OVC060
  FM061000 19012KT P6SM SCT040 BKN060
  FM070100 18010KT P6SM SCT060 BKN080
E 85 nm 1956' KSFF TAF KSFF 060538Z 0606/0706 VRB03KT 3SM BR OVC004
  FM060900 24004KT 4SM BR OVC010
  FM061000 24004KT 2SM BR OVC009
  FM062000 21010KT P6SM BKN009
  FM070000 22008KT 6SM HZ BR OVC015
S 93 nm 1494' KPDT KPDT 060521Z 0606/0706 25018G28KT P6SM VCSH BKN035 OVC050
  FM061000 25015G25KT P6SM SCT040 BKN050
  FM070100 23008KT P6SM SCT050 BKN070
E 94 nm 2566' KPUW TAF KPUW 060538Z 0606/0706 26011G19KT P6SM -RA FEW010 BKN040 OVC090
  FM060800 25015G20KT P6SM BKN009 OVC020
  FM062000 24015G20KT P6SM SCT012 BKN020

Shortcut to this page: http://wxbay.com.

Data may contain errors.